Latest Weather Observations for Mareeba

IDQ60801

Issued at 9:35 am EST Thursday 24 April 2014 (issued every 30 minutes, with the page automatically refreshed every 10 minutes)

About weather observations | Map of weather stations | Latest weather observations for QLD | Other Formats
Station Details ID: 031210 Name: MAREEBA AIRPORT Lat: -17.07 Lon: 145.43 Height: 471.93 m
Data from the previous 72 hours. | See also: Recent months at Mareeba
Date/Time
EST
Temp
°C
App
Temp
°C
Dew
Point
Rel
Hum
%
Delta-T
°C
Wind Press
QNH
hPa
Press
MSL
hPa
Rain
since 9 am
mm
Dir
 
Spd
km/h
Gust
km/h
Spd
kts
Gust
kts
24/09:30am 24.3 24.7 19.8 76 3.0 SSE 17 24 9 13 1014.7 - 0.0
24/09:00am 24.4 25.0 20.3 78 2.7 SE 17 26 9 14 1014.4 1011.7 0.0
24/08:30am 23.5 23.4 19.6 79 2.5 SE 19 28 10 15 1014.2 - 0.0
24/08:00am 23.1 23.6 19.3 79 2.5 SE 15 24 8 13 1014.0 - 0.0
24/07:30am 22.9 22.1 19.3 80 2.3 SE 22 32 12 17 1013.7 - 0.0
24/07:00am 22.9 24.3 19.5 81 2.2 SE 11 15 6 8 1013.4 - 0.0
24/06:30am 22.8 23.3 19.2 80 2.3 ESE 15 20 8 11 1012.9 - 0.0
24/06:00am 22.7 23.1 19.1 80 2.3 SE 15 20 8 11 1012.7 1010.0 0.0
24/05:30am 22.5 22.6 19.1 81 2.2 SE 17 26 9 14 1012.3 - 0.0
24/05:00am 22.3 21.7 18.9 81 2.2 SE 20 30 11 16 1011.9 - 0.0
24/04:30am 22.5 22.1 19.3 82 2.1 SE 20 30 11 16 1011.8 - 0.0
24/04:00am 22.2 22.4 19.4 84 1.8 SE 17 24 9 13 1011.8 - 0.0
24/03:30am 22.1 23.5 19.5 85 1.7 SE 11 19 6 10 1012.4 - 0.0
24/03:00am 21.6 23.7 19.0 85 1.7 ENE 6 11 3 6 1012.7 1010.0 0.0
24/02:30am 22.5 23.9 19.5 83 2.0 ESE 11 13 6 7 1012.8 - 0.0
24/02:00am 22.4 22.6 19.4 83 1.9 ESE 17 20 9 11 1013.1 - 0.0
24/01:30am 22.2 22.3 19.2 83 1.9 SE 17 22 9 12 1013.4 - 0.0
24/01:00am 22.2 22.6 19.0 82 2.1 SE 15 20 8 11 1014.0 - 0.0
24/12:30am 22.3 23.6 19.3 83 1.9 SSE 11 15 6 8 1014.4 - 0.0
24/12:00am 22.4 22.5 19.2 82 2.1 SE 17 24 9 13 1014.7 1012.0 0.0
 
Date/Time
EST
Temp
°C
App
Temp
°C
Dew
Point
Rel
Hum
%
Delta-T
°C
Wind Press
QNH
hPa
Press
MSL
hPa
Rain
since 9 am
mm
Dir
 
Spd
km/h
Gust
km/h
Spd
kts
Gust
kts
23/11:30pm 22.4 21.9 19.2 82 2.1 SE 20 26 11 14 1014.8 - 0.0
23/11:00pm 22.3 21.4 19.1 82 2.1 SE 22 30 12 16 1015.0 - 0.0
23/10:30pm 22.4 21.2 19.2 82 2.1 SE 24 33 13 18 1015.1 - 0.0
23/10:00pm 22.4 21.9 19.2 82 2.1 SSE 20 30 11 16 1015.2 - 0.0
23/09:30pm 22.7 22.5 19.3 81 2.2 SSE 19 26 10 14 1015.1 - 0.0
23/09:00pm 22.8 22.5 19.6 82 2.1 SSE 20 32 11 17 1015.1 1012.5 0.0
23/08:30pm 22.6 23.6 19.4 82 2.1 SSE 13 19 7 10 1015.0 - 0.0
23/08:00pm 22.7 23.0 19.5 82 2.1 SE 17 22 9 12 1014.5 - 0.0
23/07:30pm 22.8 22.1 19.4 81 2.2 SE 22 26 12 14 1014.2 - 0.0
23/07:00pm 23.0 23.3 19.6 81 2.2 S 17 24 9 13 1013.9 - 0.0
23/06:30pm 23.3 23.6 19.7 80 2.4 S 17 22 9 12 1013.6 - 0.0
23/06:00pm 23.9 25.1 19.8 78 2.7 SSE 13 19 7 10 1013.4 1010.7 0.0
23/05:30pm 24.8 25.2 19.8 74 3.3 SSE 17 20 9 11 1013.4 - 0.0
23/05:00pm 25.5 25.7 19.4 69 4.0 SE 17 24 9 13 1013.1 - 0.0
23/04:30pm 26.1 26.8 19.7 68 4.2 SE 15 20 8 11 1012.8 - 0.0
23/04:00pm 26.6 27.5 20.0 67 4.4 SE 15 24 8 13 1012.6 - 0.0
23/03:30pm 25.9 25.8 19.5 68 4.2 SE 19 24 10 13 1012.6 - 0.0
23/03:00pm 27.5 29.0 18.8 59 5.7 ESE 9 17 5 9 1012.7 1010.0 0.0
23/02:30pm 27.7 28.5 19.0 59 5.7 ESE 13 20 7 11 1012.7 - 0.0
23/02:00pm 27.4 27.4 18.9 59 5.6 ESE 17 20 9 11 1012.9 - 0.0
23/01:30pm 26.8 27.5 18.9 62 5.2 E 13 19 7 10 1013.4 - 0.0
23/01:00pm 27.0 26.8 18.6 60 5.5 ESE 17 22 9 12 1013.7 - 0.0
23/12:30pm 26.9 27.1 19.3 63 5.0 SE 17 24 9 13 1014.0 - 0.0
23/12:00pm 26.8 26.4 19.4 64 4.9 SE 20 32 11 17 1014.4 1011.7 0.0
23/11:30am 26.9 27.8 18.5 60 5.5 ESE 11 20 6 11 1015.0 - 0.0
23/11:00am 26.5 26.6 19.1 64 4.8 ESE 17 26 9 14 1015.5 - 0.0
23/10:30am 25.8 25.7 19.9 70 3.9 ESE 20 26 11 14 1015.8 - 0.0
23/10:00am 25.0 25.4 19.1 70 3.8 SE 15 20 8 11 1015.8 - 0.0
23/09:30am 24.4 24.1 19.2 73 3.4 SE 19 26 10 14 1015.6 - 0.0
23/09:00am 24.2 24.1 19.5 75 3.1 SE 19 24 10 13 1015.4 1012.7 0.0
23/08:30am 23.8 23.5 19.1 75 3.1 SE 19 30 10 16 1015.2 - 0.0
23/08:00am 24.1 23.8 19.2 74 3.2 ESE 19 24 10 13 1014.8 - 0.0
23/07:30am 23.6 24.1 19.3 77 2.8 SSE 15 20 8 11 1014.7 - 0.0
23/07:00am 21.9 22.6 18.9 83 1.9 SSE 13 17 7 9 1014.6 - 0.0
23/06:30am 21.2 22.3 18.8 86 1.5 SE 11 19 6 10 1014.1 - 0.0
23/06:00am 21.2 22.6 18.6 85 1.7 SSE 9 13 5 7 1013.9 1011.2 0.0
23/05:30am 21.6 21.8 18.6 83 1.9 SSE 15 22 8 12 1013.8 - 0.0
23/05:00am 21.6 21.8 18.6 83 1.9 SSE 15 19 8 10 1013.8 - 0.0
23/04:30am 21.6 22.7 18.8 84 1.8 ESE 11 15 6 8 1013.9 - 0.0
23/04:00am 21.8 21.8 19.0 84 1.8 SE 17 22 9 12 1013.7 - 0.0
23/03:30am 21.4 21.7 18.8 85 1.7 SSE 15 20 8 11 1013.9 - 0.0
23/03:00am 20.9 21.5 18.5 86 1.5 S 13 17 7 9 1014.3 1011.6 0.0
23/02:30am 20.8 22.4 18.2 85 1.6 SSE 7 17 4 9 1014.2 - 0.0
23/02:00am 21.1 22.3 18.3 84 1.8 SE 9 13 5 7 1014.6 - 0.0
23/01:30am 21.2 22.4 18.2 83 1.9 SSE 9 13 5 7 1015.1 - 0.0
23/01:00am 21.6 22.1 18.4 82 2.0 SE 13 17 7 9 1015.5 - 0.0
23/12:30am 21.5 22.1 18.5 83 1.9 SSE 13 17 7 9 1016.0 - 0.0
23/12:00am 21.6 21.7 18.4 82 2.0 SE 15 20 8 11 1016.3 1013.6 0.0
 
Date/Time
EST
Temp
°C
App
Temp
°C
Dew
Point
Rel
Hum
%
Delta-T
°C
Wind Press
QNH
hPa
Press
MSL
hPa
Rain
since 9 am
mm
Dir
 
Spd
km/h
Gust
km/h
Spd
kts
Gust
kts
22/11:30pm 21.7 22.2 18.3 81 2.2 SE 13 17 7 9 1016.3 - 0.0
22/11:00pm 22.1 22.1 18.1 78 2.5 SE 15 20 8 11 1016.5 - 0.0
22/10:30pm 21.9 21.9 18.1 79 2.4 SSE 15 20 8 11 1016.6 - 0.0
22/10:00pm 22.0 21.3 18.2 79 2.4 SSE 19 24 10 13 1016.8 - 0.0
22/09:30pm 22.0 22.4 18.2 79 2.4 SSE 13 17 7 9 1017.1 - 0.0
22/09:00pm 22.1 22.0 17.9 77 2.7 SE 15 22 8 12 1016.9 1014.3 0.0
22/08:30pm 22.1 22.8 17.9 77 2.7 SSE 11 17 6 9 1016.9 - 0.0
22/08:00pm 22.2 22.2 18.0 77 2.7 SSE 15 20 8 11 1016.7 - 0.0
22/07:30pm 22.3 22.2 17.9 76 2.8 SE 15 22 8 12 1016.4 - 0.0
22/07:00pm 22.7 21.5 17.6 73 3.2 SE 20 28 11 15 1015.9 - 0.0
22/06:30pm 23.0 23.6 17.7 72 3.4 ESE 11 17 6 9 1016.0 - 0.0
22/06:00pm 23.0 23.6 17.7 72 3.4 SE 11 17 6 9 1016.1 1013.4 0.0
22/05:30pm 23.2 23.8 17.6 71 3.5 ESE 11 17 6 9 1015.9 - 0.0
22/05:00pm 23.5 23.8 17.9 71 3.6 ESE 13 19 7 10 1015.6 - 0.0
22/04:30pm 23.5 22.9 17.5 69 3.8 SE 17 24 9 13 1015.2 - 0.0
22/04:00pm 24.3 24.1 18.5 70 3.7 SSE 17 24 9 13 1015.1 - 0.0
22/03:30pm 24.1 24.5 19.0 73 3.3 SE 15 20 8 11 1015.0 - 0.0
22/03:00pm 24.6 24.2 18.1 67 4.2 ESE 17 22 9 12 1015.1 1012.5 0.0
22/02:30pm 25.2 25.3 17.4 62 5.0 SE 13 19 7 10 1015.0 - 0.0
22/02:00pm 25.6 26.8 18.3 64 4.7 E 9 15 5 8 1015.5 - 0.0
22/01:30pm 24.9 25.6 18.8 69 4.0 E 13 19 7 10 1015.9 - 0.0
22/01:00pm 23.9 23.2 18.3 71 3.6 SE 19 24 10 13 1016.2 - 0.0
22/12:30pm 24.2 23.8 18.8 72 3.5 SSE 19 22 10 12 1016.6 - 0.0
22/12:00pm 24.2 23.6 18.4 70 3.7 SE 19 24 10 13 1016.9 1014.3 0.0
22/11:30am 23.0 23.3 18.7 77 2.8 ESE 15 22 8 12 1017.6 - 0.0
22/11:00am 22.7 22.3 18.9 79 2.5 ESE 19 22 10 12 1018.0 - 0.0
22/10:30am 23.0 23.6 18.7 77 2.8 E 13 20 7 11 1018.3 - 0.0
22/10:00am 22.8 23.0 19.4 81 2.2 SE 17 20 9 11 1018.3 - 0.0
22/09:30am 22.5 23.6 19.7 84 1.8 ESE 13 19 7 10 1018.2 - 0.0
22/09:00am 22.2 23.2 19.4 84 1.8 ESE 13 17 7 9 1017.9 1015.2 0.2
22/08:30am 21.6 22.2 19.5 88 1.4 SE 15 20 8 11 1017.6 - 0.2
22/08:00am 21.3 21.4 19.2 88 1.4 SE 17 26 9 14 1017.3 - 0.2
22/07:30am 21.1 21.2 19.2 89 1.2 SE 17 22 9 12 1017.1 - 0.2
22/07:00am 21.2 22.4 19.1 88 1.4 SE 11 15 6 8 1016.7 - 0.2
22/06:30am 21.1 21.5 18.9 87 1.4 SSE 15 19 8 10 1016.3 - 0.2
22/06:00am 21.3 22.4 18.9 86 1.5 SSE 11 15 6 8 1016.2 1013.5 0.2
22/05:30am 21.2 22.3 18.9 87 1.5 SE 11 15 6 8 1015.9 - 0.2
22/05:00am 21.1 23.1 18.7 86 1.5 ESE 6 17 3 9 1015.8 - 0.2
22/04:30am 21.1 23.7 18.5 85 1.7 SSE 2 11 1 6 1015.8 - 0.2
22/04:00am 20.8 23.8 18.4 86 1.5 CALM 0 6 0 3 1016.0 - 0.2
22/03:30am 21.1 22.0 18.5 85 1.7 ESE 11 20 6 11 1015.8 - 0.0
22/03:00am 20.8 21.3 18.4 86 1.5 SSE 13 20 7 11 1016.0 1013.3 0.0
22/02:30am 21.0 21.6 18.6 86 1.5 SSE 13 19 7 10 1016.2 - 0.0
22/02:00am 21.4 21.9 18.4 83 1.9 SSE 13 17 7 9 1016.4 - 0.0
22/01:30am 21.8 23.1 18.4 81 2.2 SE 9 15 5 8 1016.5 - 0.0
22/01:00am 21.6 23.4 18.4 82 2.0 NE 6 11 3 6 1016.8 - 0.0
22/12:30am 21.5 24.2 18.7 84 1.8 E 2 15 1 8 1017.0 - 0.0
22/12:00am 21.5 22.1 18.5 83 1.9 SE 13 17 7 9 1017.3 1014.7 0.0
 
Date/Time
EST
Temp
°C
App
Temp
°C
Dew
Point
Rel
Hum
%
Delta-T
°C
Wind Press
QNH
hPa
Press
MSL
hPa
Rain
since 9 am
mm
Dir
 
Spd
km/h
Gust
km/h
Spd
kts
Gust
kts
21/11:30pm 21.5 21.7 18.5 83 1.9 SE 15 20 8 11 1017.4 - 0.0
21/11:00pm 21.4 22.3 18.4 83 1.9 SE 11 17 6 9 1017.7 - 0.0
21/10:30pm 21.6 21.9 18.0 80 2.3 SE 13 20 7 11 1017.7 - 0.0
21/10:00pm 22.0 21.7 18.2 79 2.4 SE 17 24 9 13 1017.6 - 0.0
21/09:30pm 22.0 21.2 18.0 78 2.5 SE 19 26 10 14 1017.8 - 0.0
21/09:00pm 22.0 22.4 18.2 79 2.4 SE 13 20 7 11 1017.8 1015.1 0.0
21/08:30pm 22.1 22.2 18.3 79 2.4 SE 15 20 8 11 1017.3 - 0.0
21/08:00pm 21.8 22.2 18.2 80 2.3 SE 13 20 7 11 1017.2 - 0.0
21/07:30pm 21.7 21.9 18.5 82 2.0 SE 15 20 8 11 1017.1 - 0.0
21/07:00pm 21.6 21.8 18.6 83 1.9 SSE 15 20 8 11 1016.8 - 0.0
21/06:30pm 22.3 22.5 18.5 79 2.4 SE 15 24 8 13 1016.6 - 0.0
21/06:00pm 22.6 21.8 18.4 77 2.7 SE 20 30 11 16 1016.3 1013.6 0.0
21/05:30pm 22.7 22.9 18.5 77 2.7 SE 15 22 8 12 1016.0 - 0.0
21/05:00pm 22.7 22.1 18.5 77 2.7 SE 19 26 10 14 1015.8 - 0.0
21/04:30pm 23.1 22.3 18.4 75 3.0 SE 20 28 11 15 1015.5 - 0.0
21/04:00pm 23.9 22.7 18.3 71 3.6 ESE 22 37 12 20 1015.4 - 0.0
21/03:30pm 24.4 23.5 18.3 69 3.9 SE 20 28 11 15 1015.0 - 0.0
21/03:00pm 24.6 23.8 18.5 69 3.9 SE 20 30 11 16 1015.0 1012.4 0.0
21/02:30pm 24.6 23.8 18.5 69 3.9 SE 20 28 11 15 1015.0 - 0.0
21/02:00pm 24.2 23.0 18.4 70 3.7 SE 22 30 12 16 1015.4 - 0.0
21/01:30pm 24.1 23.2 18.1 69 3.8 SE 20 28 11 15 1015.7 - 0.0
21/01:00pm 24.8 23.8 18.0 66 4.4 SE 20 26 11 14 1015.8 - 0.0
21/12:30pm 25.2 24.4 18.4 66 4.4 ESE 20 30 11 16 1016.1 - 0.0
21/12:00pm 24.8 23.2 17.5 64 4.6 ESE 22 30 12 16 1016.5 1013.8 0.0
21/11:30am 25.0 23.1 16.7 60 5.2 E 22 32 12 17 1016.9 - 0.0
21/11:00am 25.5 23.2 15.8 55 6.0 SE 22 35 12 19 1017.2 - 0.0
21/10:30am 25.2 22.3 16.1 57 5.7 SE 26 35 14 19 1017.7 - 0.0
21/10:00am 25.4 22.1 15.1 53 6.3 SE 26 37 14 20 1017.6 - 0.0

Other Formats:

Comma delimited format used in spreadsheet applications
http://www.bom.gov.au/fwo/IDQ60801/IDQ60801.95286.axf

JavaScript Object Notation format (JSON) in row-major order
http://www.bom.gov.au/fwo/IDQ60801/IDQ60801.95286.json